createdAt,value
2018-05-05T00:00:21.739Z,11.50
2018-05-05T00:02:49.996Z,11.50
2018-05-05T00:05:17.474Z,11.40
2018-05-05T00:07:45.721Z,11.40
2018-05-05T00:10:13.188Z,11.40
2018-05-05T00:12:40.686Z,11.30
2018-05-05T00:15:08.152Z,11.30
2018-05-05T00:17:35.644Z,11.30
2018-05-05T00:20:03.881Z,11.40
2018-05-05T00:22:31.370Z,11.30
2018-05-05T00:24:58.842Z,11.30
2018-05-05T00:27:26.333Z,11.30
2018-05-05T00:29:53.796Z,11.20
2018-05-05T00:32:21.265Z,11.20
2018-05-05T00:34:48.749Z,11.20
2018-05-05T00:37:16.220Z,11.00
2018-05-05T00:39:43.705Z,11.00
2018-05-05T00:42:11.952Z,10.90
2018-05-05T00:44:39.441Z,10.90
2018-05-05T00:47:06.928Z,10.80
2018-05-05T00:49:34.404Z,10.90
2018-05-05T00:52:02.001Z,10.80
2018-05-05T00:54:41.410Z,10.70
2018-05-05T00:57:08.879Z,10.70
2018-05-05T00:59:36.365Z,10.60
2018-05-05T01:02:03.833Z,10.60
2018-05-05T01:04:31.300Z,10.60
2018-05-05T01:06:58.784Z,10.50
2018-05-05T01:09:27.021Z,10.30
2018-05-05T01:11:54.524Z,10.30
2018-05-05T01:14:22.016Z,10.20
2018-05-05T01:16:49.501Z,10.00
2018-05-05T01:19:17.000Z,9.90
2018-05-05T01:21:44.468Z,9.70
2018-05-05T01:24:12.733Z,9.50
2018-05-05T01:26:40.966Z,9.40
2018-05-05T01:29:08.449Z,9.30
2018-05-05T01:31:35.912Z,9.30
2018-05-05T01:34:03.377Z,9.20
2018-05-05T01:36:31.628Z,9.00
2018-05-05T01:38:59.092Z,8.90
2018-05-05T01:41:26.572Z,8.90
2018-05-05T01:43:54.808Z,8.80
2018-05-05T01:46:22.308Z,8.80
2018-05-05T01:48:50.556Z,8.80
2018-05-05T01:51:18.028Z,8.70
2018-05-05T01:53:46.336Z,8.70
2018-05-05T01:56:13.807Z,8.70
2018-05-05T01:58:41.294Z,8.70
2018-05-05T02:01:08.756Z,8.60
2018-05-05T02:03:36.272Z,8.50
2018-05-05T02:06:03.748Z,8.60
2018-05-05T02:08:31.228Z,8.50
2018-05-05T02:10:58.704Z,8.40
2018-05-05T02:13:26.944Z,8.40
2018-05-05T02:15:54.433Z,8.40
2018-05-05T02:18:22.668Z,8.50
2018-05-05T02:20:50.137Z,8.40
2018-05-05T02:23:17.619Z,8.80
2018-05-05T02:25:45.852Z,9.00
2018-05-05T02:28:13.333Z,8.90
2018-05-05T02:30:40.792Z,9.00
2018-05-05T02:33:08.274Z,8.90
2018-05-05T02:35:35.737Z,8.90
2018-05-05T02:38:03.222Z,8.90
2018-05-05T02:40:30.696Z,8.90
2018-05-05T02:42:58.163Z,8.70
2018-05-05T02:45:25.652Z,8.60
2018-05-05T02:47:53.117Z,8.60
2018-05-05T02:50:20.593Z,8.60
2018-05-05T02:52:48.065Z,8.60
2018-05-05T02:55:15.555Z,8.70
2018-05-05T02:57:43.017Z,8.90
2018-05-05T03:00:11.278Z,8.90
2018-05-05T03:02:38.745Z,8.90
2018-05-05T03:05:06.997Z,8.90
2018-05-05T03:07:35.996Z,8.90
2018-05-05T03:10:03.460Z,8.80
2018-05-05T03:12:31.722Z,8.90
2018-05-05T03:14:59.189Z,8.90
2018-05-05T03:17:26.686Z,8.90
2018-05-05T03:19:54.146Z,8.80
2018-05-05T03:22:21.652Z,8.80
2018-05-05T03:24:49.112Z,8.80
2018-05-05T03:27:16.609Z,8.80
2018-05-05T03:29:44.088Z,8.70
2018-05-05T03:32:11.623Z,8.70
2018-05-05T03:34:39.108Z,8.60
2018-05-05T03:37:06.589Z,8.50
2018-05-05T03:39:34.068Z,8.40
2018-05-05T03:42:02.307Z,8.10
2018-05-05T03:44:29.932Z,8.10
2018-05-05T03:46:57.396Z,8.10
2018-05-05T03:49:25.923Z,8.10
2018-05-05T03:51:54.178Z,8.30
2018-05-05T03:54:21.692Z,8.30
2018-05-05T03:56:49.182Z,8.30
2018-05-05T03:59:28.559Z,8.30
2018-05-05T04:02:08.841Z,8.20
2018-05-05T04:04:36.503Z,8.10
2018-05-05T04:07:04.033Z,8.00
2018-05-05T04:09:32.299Z,8.10
2018-05-05T04:11:59.816Z,8.00
2018-05-05T04:14:27.281Z,8.00
2018-05-05T04:16:55.549Z,8.00
2018-05-05T04:19:23.013Z,7.90
2018-05-05T04:21:50.483Z,8.00
2018-05-05T04:24:17.977Z,8.00
2018-05-05T04:26:45.441Z,8.10
2018-05-05T04:29:12.939Z,8.00
2018-05-05T04:31:40.424Z,8.10
2018-05-05T04:34:08.672Z,8.10
2018-05-05T04:36:37.654Z,8.10
2018-05-05T04:39:05.138Z,8.10
2018-05-05T04:41:32.602Z,8.20
2018-05-05T04:44:00.840Z,8.20
2018-05-05T04:46:28.320Z,8.10
2018-05-05T04:48:55.789Z,8.20
2018-05-05T04:51:24.090Z,8.50
2018-05-05T04:53:51.552Z,8.50
2018-05-05T04:56:19.041Z,9.80
2018-05-05T04:58:46.512Z,11.30
2018-05-05T05:01:13.985Z,12.00
2018-05-05T05:03:42.252Z,14.10
2018-05-05T05:06:09.717Z,14.10
2018-05-05T05:08:37.980Z,14.20
2018-05-05T05:11:06.988Z,13.00
2018-05-05T05:13:34.453Z,13.00
2018-05-05T05:16:01.953Z,12.70
2018-05-05T05:18:29.449Z,13.00
2018-05-05T05:20:57.695Z,12.40
2018-05-05T05:23:25.215Z,12.40
2018-05-05T05:25:52.696Z,11.00
2018-05-05T05:28:20.169Z,10.20
2018-05-05T05:30:47.660Z,10.20
2018-05-05T05:33:15.902Z,10.10
2018-05-05T05:35:43.386Z,10.10
2018-05-05T05:38:11.626Z,11.80
2018-05-05T05:40:39.114Z,11.80
2018-05-05T05:43:07.368Z,12.30
2018-05-05T05:45:34.888Z,12.30
2018-05-05T05:48:02.377Z,12.50
2018-05-05T05:50:29.860Z,12.20
2018-05-05T05:52:58.096Z,13.40
2018-05-05T05:55:25.580Z,13.40
2018-05-05T05:57:53.061Z,14.00
2018-05-05T06:00:20.549Z,13.50
2018-05-05T06:02:48.021Z,13.80
2018-05-05T06:05:15.597Z,14.40
2018-05-05T06:07:43.027Z,14.20
2018-05-05T06:10:10.516Z,13.90
2018-05-05T06:12:38.752Z,14.40
2018-05-05T06:15:06.229Z,14.40
2018-05-05T06:17:33.731Z,14.70
2018-05-05T06:20:02.024Z,15.50
2018-05-05T06:22:29.582Z,15.50
2018-05-05T06:24:57.075Z,14.30
2018-05-05T06:27:24.573Z,14.60
2018-05-05T06:29:52.804Z,14.40
2018-05-05T06:32:20.598Z,14.40
2018-05-05T06:34:48.869Z,15.40
2018-05-05T06:37:16.440Z,15.40
2018-05-05T06:39:43.849Z,15.40
2018-05-05T06:42:11.314Z,15.20
2018-05-05T06:44:38.837Z,15.00
2018-05-05T06:47:06.324Z,15.80
2018-05-05T06:49:33.827Z,15.00
2018-05-05T06:52:02.073Z,14.60
2018-05-05T06:54:29.590Z,14.50
2018-05-05T06:56:57.079Z,15.20
2018-05-05T06:59:24.549Z,15.70
2018-05-05T07:01:52.040Z,15.90
2018-05-05T07:04:19.521Z,15.40
2018-05-05T07:06:47.061Z,15.40
2018-05-05T07:09:14.704Z,14.90
2018-05-05T07:11:42.149Z,15.30
2018-05-05T07:14:10.384Z,15.30
2018-05-05T07:16:37.909Z,15.30
2018-05-05T07:19:05.384Z,15.10
2018-05-05T07:21:32.857Z,15.60
2018-05-05T07:24:00.345Z,15.20
2018-05-05T07:26:28.591Z,15.70
2018-05-05T07:28:56.152Z,15.70
2018-05-05T07:31:23.622Z,15.30
2018-05-05T07:33:51.108Z,15.20
2018-05-05T07:36:18.596Z,16.40
2018-05-05T07:38:46.085Z,16.70
2018-05-05T07:41:13.556Z,16.20
2018-05-05T07:43:41.837Z,16.80
2018-05-05T07:46:10.064Z,17.00
2018-05-05T07:48:37.542Z,17.00
2018-05-05T07:51:05.021Z,17.10
2018-05-05T07:53:33.252Z,16.80
2018-05-05T07:56:00.741Z,16.80
2018-05-05T07:58:28.209Z,16.60
2018-05-05T08:00:56.457Z,17.50
2018-05-05T08:03:23.924Z,17.50
2018-05-05T08:05:51.422Z,18.50
2018-05-05T08:08:18.885Z,17.50
2018-05-05T08:10:46.373Z,17.80
2018-05-05T08:13:13.844Z,18.40
2018-05-05T08:15:41.326Z,17.30
2018-05-05T08:18:09.572Z,16.70
2018-05-05T08:20:37.033Z,16.60
2018-05-05T08:23:04.512Z,16.80
2018-05-05T08:25:32.336Z,17.60
2018-05-05T08:27:59.829Z,17.80
2018-05-05T08:30:28.060Z,17.60
2018-05-05T08:32:55.540Z,17.60
2018-05-05T08:35:23.021Z,17.00
2018-05-05T08:37:50.486Z,16.80
2018-05-05T08:40:17.986Z,16.90
2018-05-05T08:42:45.453Z,17.30
2018-05-05T08:45:12.933Z,17.10
2018-05-05T08:47:41.166Z,17.30
2018-05-05T08:50:09.429Z,17.30
2018-05-05T08:52:36.991Z,17.20
2018-05-05T08:55:04.433Z,17.60
2018-05-05T08:57:31.963Z,18.00
2018-05-05T09:00:00.189Z,18.10
2018-05-05T09:02:27.785Z,18.10
2018-05-05T09:04:56.020Z,17.80
2018-05-05T09:07:23.500Z,17.80
2018-05-05T09:09:50.969Z,18.00
2018-05-05T09:12:19.205Z,17.30
2018-05-05T09:14:46.697Z,17.30
2018-05-05T09:17:14.925Z,17.50
2018-05-05T09:19:42.408Z,17.50
2018-05-05T09:22:09.880Z,18.00
2018-05-05T09:24:37.378Z,17.80
2018-05-05T09:27:04.844Z,18.20
2018-05-05T09:29:32.316Z,18.10
2018-05-05T09:31:59.813Z,17.90
2018-05-05T09:34:28.061Z,18.40
2018-05-05T09:36:55.540Z,18.30
2018-05-05T09:39:23.792Z,18.20
2018-05-05T09:41:51.292Z,18.10
2018-05-05T09:44:18.760Z,17.90
2018-05-05T09:46:46.224Z,18.50
2018-05-05T09:49:13.831Z,18.80
2018-05-05T09:51:41.256Z,19.30
2018-05-05T09:54:08.744Z,18.70
2018-05-05T09:56:36.210Z,18.80
2018-05-05T09:59:04.469Z,19.30
2018-05-05T10:01:31.932Z,19.20
2018-05-05T10:03:59.433Z,18.60
2018-05-05T10:06:26.921Z,19.10
2018-05-05T10:08:54.463Z,19.70
2018-05-05T10:11:21.880Z,20.20
2018-05-05T10:13:49.349Z,20.20
2018-05-05T10:16:16.857Z,18.60
2018-05-05T10:18:44.324Z,19.70
2018-05-05T10:21:11.828Z,19.50
2018-05-05T10:23:39.293Z,19.60
2018-05-05T10:26:06.784Z,19.60
2018-05-05T10:28:34.252Z,19.10
2018-05-05T10:31:01.761Z,19.40
2018-05-05T10:33:29.245Z,19.30
2018-05-05T10:35:56.724Z,19.40
2018-05-05T10:38:24.973Z,20.00
2018-05-05T10:40:52.436Z,20.00
2018-05-05T10:43:19.921Z,20.20
2018-05-05T10:45:48.299Z,19.80
2018-05-05T10:48:15.725Z,19.70
2018-05-05T10:50:43.214Z,20.70
2018-05-05T10:53:11.441Z,20.40
2018-05-05T10:55:38.930Z,20.40
2018-05-05T10:58:07.176Z,20.40
2018-05-05T11:00:34.660Z,20.40
2018-05-05T11:03:02.896Z,20.80
2018-05-05T11:05:30.630Z,20.90
2018-05-05T11:07:58.097Z,20.80
2018-05-05T11:10:25.574Z,20.30
2018-05-05T11:12:53.060Z,21.20
2018-05-05T11:15:20.525Z,20.70
2018-05-05T11:17:48.772Z,20.40
2018-05-05T11:20:16.255Z,20.40
2018-05-05T11:22:44.505Z,20.60
2018-05-05T11:25:11.977Z,20.60
2018-05-05T11:27:39.469Z,20.30
2018-05-05T11:30:06.940Z,20.90
2018-05-05T11:32:34.404Z,21.60
2018-05-05T11:35:01.902Z,21.80
2018-05-05T11:37:30.149Z,21.30
2018-05-05T11:39:57.636Z,21.30
2018-05-05T11:42:25.866Z,21.50
2018-05-05T11:44:53.429Z,21.50
2018-05-05T11:47:20.864Z,21.80
2018-05-05T11:49:48.348Z,21.80
2018-05-05T11:52:15.924Z,21.90
2018-05-05T11:54:43.408Z,21.90
2018-05-05T11:57:11.704Z,21.80
2018-05-05T11:59:39.168Z,21.70
2018-05-05T12:02:06.681Z,21.90
2018-05-05T12:04:34.921Z,23.00
2018-05-05T12:07:02.429Z,23.00
2018-05-05T12:09:29.895Z,22.60
2018-05-05T12:11:57.412Z,22.70
2018-05-05T12:14:25.650Z,21.60
2018-05-05T12:16:53.136Z,21.60
2018-05-05T12:19:21.384Z,21.10
2018-05-05T12:21:48.859Z,21.10
2018-05-05T12:24:16.336Z,21.70
2018-05-05T12:26:43.820Z,21.80
2018-05-05T12:29:11.316Z,22.00
2018-05-05T12:31:38.782Z,21.50
2018-05-05T12:34:06.247Z,21.60
2018-05-05T12:36:33.737Z,22.00
2018-05-05T12:39:02.341Z,22.10
2018-05-05T12:41:29.836Z,22.10
2018-05-05T12:43:57.308Z,22.20
2018-05-05T12:46:24.792Z,22.40
2018-05-05T12:48:52.494Z,22.20
2018-05-05T12:51:19.980Z,22.20
2018-05-05T12:53:47.445Z,22.40
2018-05-05T12:56:15.688Z,22.30
2018-05-05T12:58:43.153Z,22.30
2018-05-05T13:01:10.637Z,22.90
2018-05-05T13:03:38.872Z,22.20
2018-05-05T13:06:06.351Z,22.20
2018-05-05T13:08:33.813Z,21.80
2018-05-05T13:11:01.348Z,22.20
2018-05-05T13:13:28.816Z,22.20
2018-05-05T13:15:56.281Z,22.00
2018-05-05T13:18:23.769Z,22.10
2018-05-05T13:20:51.253Z,22.50
2018-05-05T13:23:19.280Z,22.10
2018-05-05T13:25:47.517Z,22.30
2018-05-05T13:28:15.004Z,22.30
2018-05-05T13:30:43.314Z,23.40
2018-05-05T13:33:10.821Z,23.40
2018-05-05T13:35:39.049Z,22.50
2018-05-05T13:38:06.514Z,22.50
2018-05-05T13:40:34.015Z,22.10
2018-05-05T13:43:02.252Z,22.30
2018-05-05T13:45:29.729Z,22.30
2018-05-05T13:47:57.197Z,22.90
2018-05-05T13:50:24.683Z,22.80
2018-05-05T13:52:52.151Z,22.10
2018-05-05T13:55:19.638Z,22.90
2018-05-05T13:57:47.140Z,22.90
2018-05-05T14:00:15.372Z,23.30
2018-05-05T14:02:42.869Z,23.20
2018-05-05T14:05:11.097Z,22.30
2018-05-05T14:07:38.615Z,22.30
2018-05-05T14:10:06.852Z,22.50
2018-05-05T14:12:35.100Z,22.30
2018-05-05T14:15:02.569Z,22.20
2018-05-05T14:17:30.054Z,22.40
2018-05-05T14:19:58.288Z,22.00
2018-05-05T14:22:25.772Z,22.00
2018-05-05T14:24:53.236Z,22.00
2018-05-05T14:27:21.473Z,21.80
2018-05-05T14:29:48.961Z,21.70
2018-05-05T14:32:16.432Z,22.00
2018-05-05T14:34:43.944Z,22.10
2018-05-05T14:37:11.412Z,22.20
2018-05-05T14:39:38.926Z,21.80
2018-05-05T14:42:06.816Z,21.90
2018-05-05T14:44:34.288Z,22.00
2018-05-05T14:47:01.895Z,22.40
2018-05-05T14:49:29.364Z,21.90
2018-05-05T14:51:56.858Z,22.00
2018-05-05T14:54:24.320Z,22.00
2018-05-05T14:56:52.593Z,22.00
2018-05-05T14:59:20.061Z,22.00
2018-05-05T15:01:49.052Z,22.30
2018-05-05T15:04:16.584Z,22.30
2018-05-05T15:06:44.047Z,22.10
2018-05-05T15:09:11.789Z,22.00
2018-05-05T15:11:39.393Z,22.10
2018-05-05T15:14:06.894Z,22.20
2018-05-05T15:16:34.372Z,21.90
2018-05-05T15:19:02.230Z,22.20
2018-05-05T15:21:29.756Z,22.20
2018-05-05T15:23:57.514Z,22.00
2018-05-05T15:26:24.956Z,22.10
2018-05-05T15:28:53.197Z,22.00
2018-05-05T15:31:20.682Z,22.00
2018-05-05T15:33:48.917Z,22.00
2018-05-05T15:36:16.417Z,22.00
2018-05-05T15:38:44.657Z,21.90
2018-05-05T15:41:12.121Z,21.90
2018-05-05T15:43:39.629Z,21.90
2018-05-05T15:46:07.194Z,22.00
2018-05-05T15:48:34.680Z,22.00
2018-05-05T15:51:06.472Z,21.70
2018-05-05T15:53:34.171Z,21.70
2018-05-05T15:56:02.170Z,21.80
2018-05-05T15:58:29.653Z,22.10
2018-05-05T16:00:57.139Z,21.80
2018-05-05T16:06:00.643Z,21.90
2018-05-05T16:08:28.129Z,21.90
2018-05-05T16:10:55.658Z,22.00
2018-05-05T16:13:23.132Z,21.90
2018-05-05T16:15:51.457Z,21.70
2018-05-05T16:18:18.937Z,21.60
2018-05-05T16:20:46.514Z,21.90
2018-05-05T16:23:14.744Z,21.90
2018-05-05T16:25:42.247Z,21.90
2018-05-05T16:28:10.506Z,21.80
2018-05-05T16:30:37.997Z,21.80
2018-05-05T16:33:05.477Z,21.90
2018-05-05T16:35:32.952Z,21.80
2018-05-05T16:38:00.433Z,21.80
2018-05-05T16:40:27.919Z,21.80
2018-05-05T16:42:55.413Z,21.80
2018-05-05T16:45:22.881Z,21.80
2018-05-05T16:47:50.345Z,21.90
2018-05-05T16:50:19.193Z,21.90
2018-05-05T16:52:46.660Z,21.60
2018-05-05T16:55:14.153Z,21.40
2018-05-05T16:57:41.627Z,21.40
2018-05-05T17:00:09.889Z,21.40
2018-05-05T17:02:37.372Z,21.40
2018-05-05T17:05:04.873Z,21.40
2018-05-05T17:07:32.341Z,21.40
2018-05-05T17:09:59.829Z,21.30
2018-05-05T17:12:28.081Z,21.10
2018-05-05T17:14:55.546Z,21.10
2018-05-05T17:17:23.042Z,21.10
2018-05-05T17:19:50.504Z,21.10
2018-05-05T17:22:17.992Z,21.20
2018-05-05T17:24:45.468Z,21.20
2018-05-05T17:27:12.953Z,21.20
2018-05-05T17:29:40.417Z,21.10
2018-05-05T17:32:07.896Z,21.10
2018-05-05T17:34:35.376Z,21.00
2018-05-05T17:37:02.856Z,21.00
2018-05-05T17:39:31.105Z,20.90
2018-05-05T17:41:58.676Z,20.80
2018-05-05T17:44:26.868Z,20.70
2018-05-05T17:46:55.126Z,20.70
2018-05-05T17:49:22.614Z,20.60
2018-05-05T17:51:50.093Z,20.60
2018-05-05T17:54:17.559Z,20.60
2018-05-05T17:56:45.037Z,20.50
2018-05-05T17:59:12.525Z,20.50
2018-05-05T18:01:40.781Z,20.40
2018-05-05T18:04:08.292Z,20.40
2018-05-05T18:06:35.770Z,20.40
2018-05-05T18:09:03.362Z,20.30
2018-05-05T18:11:30.888Z,20.30
2018-05-05T18:13:58.357Z,20.20
2018-05-05T18:16:26.100Z,20.20
2018-05-05T18:18:53.584Z,20.10
2018-05-05T18:21:21.069Z,20.00
2018-05-05T18:23:49.336Z,19.90
2018-05-05T18:26:17.582Z,19.90
2018-05-05T18:28:45.129Z,19.80
2018-05-05T18:31:12.593Z,19.80
2018-05-05T18:33:40.083Z,19.70
2018-05-05T18:36:08.338Z,19.60
2018-05-05T18:38:35.829Z,19.60
2018-05-05T18:41:03.309Z,19.50
2018-05-05T18:43:30.867Z,19.40
2018-05-05T18:45:58.273Z,19.30
2018-05-05T18:48:26.504Z,19.20
2018-05-05T18:50:53.970Z,19.20
2018-05-05T18:53:21.460Z,19.10
2018-05-05T18:55:49.697Z,19.00
2018-05-05T18:58:17.184Z,19.00
2018-05-05T19:00:44.653Z,18.90
2018-05-05T19:03:12.918Z,18.70
2018-05-05T19:05:40.384Z,18.70
2018-05-05T19:08:08.639Z,18.50
2018-05-05T19:10:36.133Z,18.50
2018-05-05T19:13:03.609Z,18.30
2018-05-05T19:15:31.106Z,18.20
2018-05-05T19:17:58.585Z,18.10
2018-05-05T19:20:26.843Z,18.10
2018-05-05T19:22:54.308Z,18.10
2018-05-05T19:25:22.589Z,17.90
2018-05-05T19:27:50.079Z,17.90
2018-05-05T19:30:17.549Z,17.90
2018-05-05T19:32:45.049Z,17.70
2018-05-05T19:35:12.524Z,17.70
2018-05-05T19:37:40.013Z,17.50
2018-05-05T19:40:07.480Z,17.60
2018-05-05T19:42:34.975Z,17.40
2018-05-05T19:45:03.212Z,17.40
2018-05-05T19:47:30.743Z,17.40
2018-05-05T19:49:58.237Z,17.30
2018-05-05T19:52:25.721Z,17.30
2018-05-05T19:54:53.981Z,17.30
2018-05-05T19:57:21.445Z,17.30
2018-05-05T19:59:48.924Z,17.20
2018-05-05T20:02:16.393Z,17.20
2018-05-05T20:04:44.124Z,17.10
2018-05-05T20:07:12.382Z,17.00
2018-05-05T20:09:40.648Z,16.90
2018-05-05T20:12:08.137Z,16.90
2018-05-05T20:14:36.376Z,16.70
2018-05-05T20:17:03.866Z,16.70
2018-05-05T20:19:31.334Z,16.80
2018-05-05T20:21:59.589Z,16.80
2018-05-05T20:24:27.067Z,16.80
2018-05-05T20:26:55.380Z,16.70
2018-05-05T20:29:22.848Z,16.70
2018-05-05T20:31:50.328Z,16.70
2018-05-05T20:34:17.837Z,16.60
2018-05-05T20:36:45.300Z,16.50
2018-05-05T20:39:12.804Z,16.50
2018-05-05T20:41:40.271Z,16.30
2018-05-05T20:44:08.521Z,16.00
2018-05-05T20:46:35.990Z,16.00
2018-05-05T20:49:03.493Z,15.80
2018-05-05T20:51:30.961Z,15.60
2018-05-05T20:53:58.424Z,15.50
2018-05-05T20:56:25.904Z,15.40
2018-05-05T20:58:53.389Z,15.20
2018-05-05T21:01:21.649Z,14.90
2018-05-05T21:03:49.113Z,14.90
2018-05-05T21:06:16.597Z,14.80
2018-05-05T21:08:44.066Z,14.70
2018-05-05T21:11:11.564Z,14.60
2018-05-05T21:13:39.033Z,14.60
2018-05-05T21:16:07.285Z,14.40
2018-05-05T21:18:34.773Z,14.40
2018-05-05T21:21:03.015Z,14.40
2018-05-05T21:23:30.508Z,14.40
2018-05-05T21:25:58.752Z,14.50
2018-05-05T21:28:26.271Z,14.50
2018-05-05T21:30:53.734Z,14.40
2018-05-05T21:33:21.226Z,14.30
2018-05-05T21:35:48.700Z,14.40
2018-05-05T21:38:16.949Z,14.60
2018-05-05T21:40:44.463Z,14.60
2018-05-05T21:43:19.621Z,14.50
2018-05-05T21:48:26.977Z,14.20
2018-05-05T21:50:59.209Z,13.90
2018-05-05T21:53:32.383Z,13.90
2018-05-05T21:56:03.386Z,13.80
2018-05-05T21:58:39.941Z,13.70
2018-05-05T22:01:11.176Z,13.60
2018-05-05T22:03:41.887Z,13.60
2018-05-05T22:06:13.972Z,13.60
2018-05-05T22:08:44.269Z,13.50
2018-05-05T22:11:14.827Z,13.50
2018-05-05T22:13:50.858Z,13.30
2018-05-05T22:16:21.475Z,13.30
2018-05-05T22:18:55.436Z,13.20
2018-05-05T22:21:26.771Z,13.00
2018-05-05T22:24:00.036Z,13.00
2018-05-05T22:26:29.153Z,12.90
2018-05-05T22:29:00.893Z,12.90
2018-05-05T22:31:32.387Z,12.90
2018-05-05T22:34:03.727Z,12.80
2018-05-05T22:36:40.100Z,12.70
2018-05-05T22:39:11.447Z,12.70
2018-05-05T22:41:41.930Z,12.60
2018-05-05T22:44:12.469Z,12.60
2018-05-05T22:46:46.487Z,12.60
2018-05-05T22:49:18.959Z,12.60
2018-05-05T22:51:58.510Z,12.70
2018-05-05T22:54:30.458Z,12.60
2018-05-05T22:57:03.842Z,12.60
2018-05-05T23:02:19.607Z,12.70
2018-05-05T23:04:47.723Z,13.20
2018-05-05T23:07:20.485Z,13.30
2018-05-05T23:09:50.713Z,13.30
2018-05-05T23:12:25.353Z,13.30
2018-05-05T23:15:03.357Z,13.50
2018-05-05T23:17:39.524Z,13.50
2018-05-05T23:20:07.766Z,13.50
2018-05-05T23:22:35.246Z,13.40
2018-05-05T23:25:03.508Z,13.50
2018-05-05T23:27:30.976Z,13.50
2018-05-05T23:29:59.224Z,13.40
2018-05-05T23:32:26.692Z,13.40
2018-05-05T23:34:54.182Z,13.30
2018-05-05T23:37:21.648Z,12.90
2018-05-05T23:39:49.140Z,12.80
2018-05-05T23:42:16.604Z,12.60
2018-05-05T23:44:44.077Z,12.50
2018-05-05T23:47:11.561Z,12.50
2018-05-05T23:49:39.028Z,12.60
2018-05-05T23:52:06.524Z,12.80
2018-05-05T23:54:33.989Z,13.00
2018-05-05T23:57:01.477Z,12.80
2018-05-05T23:59:28.941Z,12.90
